createdAt,value
2019-05-14T00:01:22.119Z,51.73
2019-05-14T00:03:51.641Z,54.33
2019-05-14T00:06:21.943Z,50.63
2019-05-14T00:08:52.261Z,53.63
2019-05-14T00:11:21.965Z,51.17
2019-05-14T00:13:52.015Z,51.90
2019-05-14T00:16:23.826Z,50.27
2019-05-14T00:18:51.367Z,49.00
2019-05-14T00:21:21.126Z,48.27
2019-05-14T00:23:51.400Z,44.70
2019-05-14T00:26:21.471Z,45.87
2019-05-14T00:28:51.213Z,46.33
2019-05-14T00:31:21.320Z,48.03
2019-05-14T00:33:51.288Z,45.93
2019-05-14T00:36:21.566Z,43.60
2019-05-14T00:38:51.277Z,42.33
2019-05-14T00:41:21.511Z,43.40
2019-05-14T00:43:51.398Z,46.77
2019-05-14T00:46:21.154Z,43.83
2019-05-14T00:48:51.417Z,42.50
2019-05-14T00:51:21.499Z,45.90
2019-05-14T00:53:51.571Z,43.77
2019-05-14T00:56:21.639Z,49.10
2019-05-14T00:58:52.165Z,48.40
2019-05-14T01:01:21.484Z,45.60
2019-05-14T01:03:52.180Z,46.60
2019-05-14T01:06:21.875Z,45.63
2019-05-14T01:08:51.972Z,43.00
2019-05-14T01:11:22.105Z,41.77
2019-05-14T01:13:52.188Z,39.10
2019-05-14T01:16:22.416Z,37.13
2019-05-14T01:18:51.435Z,40.60
2019-05-14T01:21:21.929Z,37.93
2019-05-14T01:23:51.379Z,38.30
2019-05-14T01:26:21.747Z,36.10
2019-05-14T01:28:51.374Z,35.83
2019-05-14T01:31:21.910Z,37.70
2019-05-14T01:33:51.527Z,38.73
2019-05-14T01:36:21.527Z,42.23
2019-05-14T01:38:51.365Z,48.57
2019-05-14T01:41:22.286Z,46.87
2019-05-14T01:43:51.339Z,50.40
2019-05-14T01:46:20.993Z,54.57
2019-05-14T01:48:51.955Z,52.90
2019-05-14T01:51:22.193Z,55.77
2019-05-14T01:53:52.111Z,63.57
2019-05-14T01:56:21.423Z,63.77
2019-05-14T01:58:52.055Z,63.13
2019-05-14T02:01:21.847Z,71.67
2019-05-14T02:03:51.768Z,71.33
2019-05-14T02:06:21.295Z,72.67
2019-05-14T02:08:51.541Z,68.60
2019-05-14T02:11:21.408Z,70.67
2019-05-14T02:13:51.883Z,70.67
2019-05-14T02:16:21.941Z,74.73
2019-05-14T02:18:52.287Z,78.30
2019-05-14T02:21:22.874Z,81.37
2019-05-14T02:23:51.569Z,72.80
2019-05-14T02:26:22.048Z,78.13
2019-05-14T02:28:51.362Z,86.00
2019-05-14T02:31:20.630Z,88.93
2019-05-14T02:33:50.296Z,78.33
2019-05-14T02:36:19.724Z,82.30
2019-05-14T02:38:49.346Z,93.73
2019-05-14T02:41:19.563Z,86.37
2019-05-14T02:43:50.320Z,99.23
2019-05-14T02:46:21.945Z,92.40
2019-05-14T02:48:49.628Z,92.93
2019-05-14T02:51:19.797Z,95.00
2019-05-14T02:53:49.735Z,92.13
2019-05-14T02:56:20.400Z,91.07
2019-05-14T02:58:49.876Z,88.20
2019-05-14T03:01:19.968Z,92.87
2019-05-14T03:03:49.656Z,86.03
2019-05-14T03:06:20.031Z,90.93
2019-05-14T03:08:49.583Z,96.57
2019-05-14T03:11:20.120Z,91.90
2019-05-14T03:13:49.652Z,93.00
2019-05-14T03:16:26.591Z,105.90
2019-05-14T03:18:50.191Z,100.10
2019-05-14T03:21:19.949Z,100.10
2019-05-14T03:23:49.640Z,104.80
2019-05-14T03:26:19.888Z,107.53
2019-05-14T03:28:49.598Z,106.77
2019-05-14T03:31:22.257Z,99.43
2019-05-14T03:33:52.338Z,92.53
2019-05-14T03:36:25.694Z,96.13
2019-05-14T03:38:50.380Z,100.00
2019-05-14T03:41:19.754Z,102.90
2019-05-14T03:43:49.402Z,106.87
2019-05-14T03:46:20.560Z,110.90
2019-05-14T03:48:49.445Z,107.37
2019-05-14T03:51:20.389Z,119.30
2019-05-14T03:54:01.411Z,116.43
2019-05-14T03:56:19.426Z,130.13
2019-05-14T03:58:49.496Z,111.70
2019-05-14T04:01:20.183Z,116.40
2019-05-14T04:03:50.331Z,114.40
2019-05-14T04:06:19.707Z,127.30
2019-05-14T04:08:50.052Z,119.20
2019-05-14T04:11:20.755Z,127.70
2019-05-14T04:13:52.697Z,113.30
2019-05-14T04:16:23.422Z,112.00
2019-05-14T04:18:54.648Z,127.10
2019-05-14T04:21:24.610Z,133.43
2019-05-14T04:23:55.231Z,112.83
2019-05-14T04:26:23.899Z,117.07
2019-05-14T04:28:52.661Z,117.53
2019-05-14T04:31:21.675Z,110.23
2019-05-14T04:33:51.697Z,111.83
2019-05-14T04:36:20.348Z,113.73
2019-05-14T04:38:54.186Z,99.17
2019-05-14T04:41:19.843Z,101.77
2019-05-14T04:43:50.018Z,93.00
2019-05-14T04:46:20.085Z,95.30
2019-05-14T04:48:50.563Z,96.47
2019-05-14T04:51:20.138Z,83.83
2019-05-14T04:53:50.196Z,96.83
2019-05-14T04:56:19.761Z,98.77
2019-05-14T04:58:49.649Z,86.77
2019-05-14T05:01:20.661Z,93.67
2019-05-14T05:03:50.333Z,89.17
2019-05-14T05:06:19.432Z,100.40
2019-05-14T05:08:49.754Z,95.27
2019-05-14T05:11:21.327Z,105.27
2019-05-14T05:13:48.986Z,107.30
2019-05-14T05:16:19.183Z,111.90
2019-05-14T05:18:49.106Z,114.23
2019-05-14T05:21:19.277Z,110.20
2019-05-14T05:23:49.301Z,111.07
2019-05-14T05:26:18.569Z,116.93
2019-05-14T05:29:01.814Z,139.27
2019-05-14T05:31:18.531Z,131.23
2019-05-14T05:33:49.046Z,128.00
2019-05-14T05:36:18.464Z,133.77
2019-05-14T05:38:49.123Z,120.87
2019-05-14T05:41:19.101Z,131.77
2019-05-14T05:43:48.516Z,132.17
2019-05-14T05:46:19.171Z,110.83
2019-05-14T05:48:48.278Z,151.57
2019-05-14T05:51:18.840Z,110.50
2019-05-14T05:53:48.329Z,119.97
2019-05-14T05:56:18.703Z,119.77
2019-05-14T05:58:48.966Z,117.53
2019-05-14T06:01:19.676Z,119.53
2019-05-14T06:03:49.204Z,90.37
2019-05-14T06:06:19.190Z,105.63
2019-05-14T06:08:49.179Z,98.30
2019-05-14T06:11:19.482Z,109.63
2019-05-14T06:13:48.635Z,108.70
2019-05-14T06:16:18.655Z,109.07
2019-05-14T06:18:48.306Z,109.07
2019-05-14T06:21:19.010Z,102.93
2019-05-14T06:23:49.045Z,101.53
2019-05-14T06:26:19.137Z,119.57
2019-05-14T06:28:49.137Z,127.77
2019-05-14T06:31:19.196Z,130.57
2019-05-14T06:33:48.805Z,123.47
2019-05-14T06:36:19.427Z,130.57
2019-05-14T06:38:49.358Z,131.27
2019-05-14T06:41:19.282Z,134.53
2019-05-14T06:43:48.828Z,116.70
2019-05-14T06:46:19.270Z,106.03
2019-05-14T06:48:48.815Z,110.60
2019-05-14T06:51:20.028Z,135.17
2019-05-14T06:53:49.847Z,112.50
2019-05-14T06:56:21.365Z,102.83
2019-05-14T06:58:49.223Z,109.77
2019-05-14T07:01:18.531Z,106.40
2019-05-14T07:03:49.023Z,133.47
2019-05-14T07:06:18.775Z,129.37
2019-05-14T07:08:52.125Z,126.03
2019-05-14T07:11:19.309Z,111.40
2019-05-14T07:13:49.082Z,105.67
2019-05-14T07:16:19.736Z,120.00
2019-05-14T07:18:52.980Z,109.87
2019-05-14T07:21:19.046Z,126.43
2019-05-14T07:23:48.932Z,113.93
2019-05-14T07:26:19.419Z,120.30
2019-05-14T07:28:49.000Z,121.40
2019-05-14T07:31:18.693Z,124.93
2019-05-14T07:33:49.256Z,118.33
2019-05-14T07:36:18.883Z,111.93
2019-05-14T07:38:48.912Z,95.37
2019-05-14T07:41:19.270Z,116.30
2019-05-14T07:43:48.543Z,98.27
2019-05-14T07:46:19.165Z,99.13
2019-05-14T07:49:03.477Z,94.60
2019-05-14T07:51:18.974Z,94.17
2019-05-14T07:53:48.823Z,90.27
2019-05-14T07:56:18.787Z,97.63
2019-05-14T07:58:49.236Z,95.63
2019-05-14T08:01:18.685Z,79.43
2019-05-14T08:03:48.780Z,79.00
2019-05-14T08:06:18.961Z,72.50
2019-05-14T08:08:49.258Z,82.50
2019-05-14T08:11:19.175Z,86.80
2019-05-14T08:13:49.415Z,65.93
2019-05-14T08:16:18.785Z,61.00
2019-05-14T08:18:48.761Z,77.07
2019-05-14T08:21:19.268Z,66.63
2019-05-14T08:23:48.277Z,73.80
2019-05-14T08:26:19.137Z,62.97
2019-05-14T08:28:48.901Z,58.33
2019-05-14T08:31:18.649Z,43.13
2019-05-14T08:33:49.188Z,39.93
2019-05-14T08:36:18.460Z,46.33
2019-05-14T08:38:49.841Z,39.93
2019-05-14T08:41:19.736Z,40.80
2019-05-14T08:43:48.877Z,39.53
2019-05-14T08:48:53.494Z,41.80
2019-05-14T08:51:22.130Z,36.93
2019-05-14T08:53:50.809Z,40.90
2019-05-14T08:56:19.484Z,31.93
2019-05-14T08:58:49.353Z,32.27
2019-05-14T09:01:19.485Z,30.27
2019-05-14T09:03:49.325Z,25.57
2019-05-14T09:06:21.070Z,21.13
2019-05-14T09:08:50.149Z,23.27
2019-05-14T09:11:24.914Z,19.07
2019-05-14T09:13:49.323Z,21.90
2019-05-14T09:16:19.505Z,22.40
2019-05-14T09:18:49.130Z,21.57
2019-05-14T09:21:20.616Z,23.33
2019-05-14T09:23:48.432Z,21.67
2019-05-14T09:26:18.178Z,26.27
2019-05-14T09:28:48.208Z,21.70
2019-05-14T09:31:19.476Z,24.60
2019-05-14T09:33:49.691Z,25.00
2019-05-14T09:36:22.981Z,18.97
2019-05-14T09:38:49.216Z,22.50
2019-05-14T09:41:18.529Z,19.70
2019-05-14T09:43:48.619Z,20.07
2019-05-14T09:46:18.596Z,20.50
2019-05-14T09:48:48.687Z,20.27
2019-05-14T09:51:18.443Z,24.00
2019-05-14T09:53:48.964Z,25.07
2019-05-14T09:56:18.646Z,20.63
2019-05-14T09:58:49.464Z,23.97
2019-05-14T10:01:19.410Z,23.30
2019-05-14T10:03:49.527Z,29.17
2019-05-14T10:06:20.631Z,26.37
2019-05-14T10:08:51.742Z,27.40
2019-05-14T10:11:20.393Z,29.23
2019-05-14T10:13:48.968Z,25.07
2019-05-14T10:16:18.813Z,21.57
2019-05-14T10:18:49.033Z,26.83
2019-05-14T10:21:19.149Z,28.13
2019-05-14T10:23:47.982Z,24.57
2019-05-14T10:26:18.527Z,27.37
2019-05-14T10:28:48.496Z,23.40
2019-05-14T10:31:23.457Z,26.80
2019-05-14T10:33:52.026Z,23.77
2019-05-14T10:36:20.691Z,27.60
2019-05-14T10:38:49.337Z,29.47
2019-05-14T10:41:18.532Z,27.90
2019-05-14T10:43:50.091Z,29.30
2019-05-14T10:46:19.273Z,27.77
2019-05-14T10:48:48.094Z,23.73
2019-05-14T10:51:18.064Z,24.40
2019-05-14T10:53:48.876Z,25.03
2019-05-14T10:56:19.157Z,23.90
2019-05-14T10:58:49.067Z,24.63
2019-05-14T11:01:22.329Z,22.20
2019-05-14T11:03:48.497Z,24.03
2019-05-14T11:06:18.769Z,29.93
2019-05-14T11:08:49.182Z,22.90
2019-05-14T11:11:18.664Z,24.33
2019-05-14T11:13:47.402Z,26.07
2019-05-14T11:16:19.215Z,23.93
2019-05-14T11:18:49.922Z,26.40
2019-05-14T11:21:26.099Z,46.53
2019-05-14T11:23:49.372Z,28.10
2019-05-14T11:26:18.611Z,32.20
2019-05-14T11:28:49.182Z,46.80
2019-05-14T11:31:19.073Z,65.40
2019-05-14T11:33:49.658Z,47.33
2019-05-14T11:36:18.907Z,36.13
2019-05-14T11:38:50.722Z,33.23
2019-05-14T11:41:20.964Z,31.67
2019-05-14T11:43:49.706Z,30.87
2019-05-14T11:46:29.657Z,30.40
2019-05-14T11:48:49.281Z,33.27
2019-05-14T11:51:19.262Z,31.13
2019-05-14T11:53:49.443Z,31.83
2019-05-14T11:56:19.474Z,32.37
2019-05-14T11:58:48.379Z,32.07
2019-05-14T12:01:18.921Z,34.37
2019-05-14T12:03:50.272Z,34.00
2019-05-14T12:06:18.623Z,39.63
2019-05-14T12:08:47.599Z,41.43
2019-05-14T12:11:19.276Z,35.67
2019-05-14T12:13:48.721Z,35.57
2019-05-14T12:16:16.859Z,40.27
2019-05-14T12:18:47.732Z,40.60
2019-05-14T12:21:15.806Z,36.53
2019-05-14T12:23:44.436Z,38.93
2019-05-14T12:26:13.028Z,34.33
2019-05-14T12:28:41.680Z,39.87
2019-05-14T12:31:10.358Z,37.33
2019-05-14T12:33:39.855Z,35.00
2019-05-14T12:36:10.339Z,32.17
2019-05-14T12:38:39.215Z,42.90
2019-05-14T12:41:09.250Z,31.20
2019-05-14T12:43:39.629Z,35.10
2019-05-14T12:46:10.439Z,39.97
2019-05-14T12:48:39.221Z,35.40
2019-05-14T12:51:10.892Z,34.30
2019-05-14T12:53:39.750Z,31.57
2019-05-14T12:56:08.850Z,36.50
2019-05-14T12:58:42.846Z,35.60
2019-05-14T13:01:08.837Z,35.07
2019-05-14T13:03:38.069Z,38.63
2019-05-14T13:06:09.697Z,33.10
2019-05-14T13:08:38.705Z,36.93
2019-05-14T13:11:09.747Z,38.07
2019-05-14T13:13:42.298Z,37.10
2019-05-14T13:16:08.487Z,36.73
2019-05-14T13:18:38.716Z,33.90
2019-05-14T13:21:07.609Z,34.60
2019-05-14T13:23:38.291Z,32.27
2019-05-14T13:26:10.485Z,32.03
2019-05-14T13:28:40.235Z,35.67
2019-05-14T13:31:09.133Z,34.73
2019-05-14T13:33:39.244Z,35.83
2019-05-14T13:36:11.323Z,34.37
2019-05-14T13:38:39.943Z,34.47
2019-05-14T13:41:11.531Z,32.37
2019-05-14T13:43:40.321Z,33.10
2019-05-14T13:46:15.038Z,34.07
2019-05-14T13:48:43.655Z,33.73
2019-05-14T13:51:12.495Z,38.40
2019-05-14T13:53:41.131Z,39.60
2019-05-14T13:56:09.964Z,36.40
2019-05-14T13:58:38.758Z,36.30
2019-05-14T14:01:09.994Z,37.37
2019-05-14T14:03:46.898Z,35.20
2019-05-14T14:06:11.133Z,40.57
2019-05-14T14:08:42.769Z,42.37
2019-05-14T14:11:12.793Z,47.97
2019-05-14T14:13:41.794Z,42.60
2019-05-14T14:16:14.928Z,42.20
2019-05-14T14:18:40.755Z,46.77
2019-05-14T14:21:10.001Z,46.53
2019-05-14T14:23:39.470Z,48.13
2019-05-14T14:26:09.378Z,49.90
2019-05-14T14:28:39.603Z,50.20
2019-05-14T14:31:11.064Z,46.13
2019-05-14T14:33:39.329Z,42.63
2019-05-14T14:36:08.215Z,43.97
2019-05-14T14:38:39.902Z,46.30
2019-05-14T14:41:10.051Z,50.67
2019-05-14T14:43:43.227Z,52.50
2019-05-14T14:46:13.941Z,51.13
2019-05-14T14:48:39.589Z,54.73
2019-05-14T14:51:08.601Z,50.73
2019-05-14T14:53:51.097Z,47.03
2019-05-14T14:56:09.463Z,52.17
2019-05-14T14:58:39.185Z,56.07
2019-05-14T15:01:08.845Z,58.03
2019-05-14T15:03:41.025Z,53.63
2019-05-14T15:06:09.984Z,53.60
2019-05-14T15:08:39.053Z,49.23
2019-05-14T15:11:08.784Z,46.97
2019-05-14T15:13:39.008Z,49.67
2019-05-14T15:16:13.591Z,50.23
2019-05-14T15:18:38.736Z,61.10
2019-05-14T15:21:09.705Z,56.23
2019-05-14T15:23:42.562Z,54.63
2019-05-14T15:26:11.941Z,50.87
2019-05-14T15:28:38.854Z,52.47
2019-05-14T15:31:10.538Z,54.23
2019-05-14T15:33:39.196Z,55.57
2019-05-14T15:36:09.107Z,56.90
2019-05-14T15:38:43.235Z,60.07
2019-05-14T15:41:13.538Z,54.10
2019-05-14T15:43:42.269Z,59.20
2019-05-14T15:46:10.925Z,60.53
2019-05-14T15:48:39.742Z,57.50
2019-05-14T15:51:11.521Z,59.37
2019-05-14T15:53:41.498Z,59.93
2019-05-14T15:56:10.154Z,55.70
2019-05-14T15:58:39.178Z,55.00
2019-05-14T16:01:09.920Z,56.30
2019-05-14T16:03:41.423Z,60.40
2019-05-14T16:06:09.054Z,58.20
2019-05-14T16:08:40.123Z,60.10
2019-05-14T16:11:11.465Z,65.23
2019-05-14T16:13:39.822Z,59.23
2019-05-14T16:16:10.612Z,57.20
2019-05-14T16:18:41.448Z,59.27
2019-05-14T16:21:10.743Z,56.63
2019-05-14T16:23:39.520Z,57.33
2019-05-14T16:26:08.821Z,51.40
2019-05-14T16:28:39.521Z,54.73
2019-05-14T16:31:09.998Z,54.43
2019-05-14T16:33:40.374Z,54.57
2019-05-14T16:36:09.375Z,54.97
2019-05-14T16:38:39.550Z,53.07
2019-05-14T16:41:08.567Z,67.03
2019-05-14T16:43:39.900Z,66.00
2019-05-14T16:46:09.493Z,61.93
2019-05-14T16:48:39.707Z,57.47
2019-05-14T16:51:09.076Z,59.07
2019-05-14T16:53:38.152Z,55.50
2019-05-14T16:56:08.204Z,56.77
2019-05-14T16:58:40.118Z,54.63
2019-05-14T17:01:09.813Z,56.83
2019-05-14T17:03:39.677Z,61.37
2019-05-14T17:06:08.738Z,56.67
2019-05-14T17:08:39.389Z,60.60
2019-05-14T17:11:08.954Z,60.53
2019-05-14T17:13:38.298Z,59.80
2019-05-14T17:16:10.043Z,68.97
2019-05-14T17:18:38.688Z,64.67
2019-05-14T17:21:09.234Z,70.83
2019-05-14T17:23:40.417Z,71.97
2019-05-14T17:26:09.163Z,66.00
2019-05-14T17:28:40.526Z,68.57
2019-05-14T17:31:08.114Z,62.93
2019-05-14T17:33:39.666Z,66.13
2019-05-14T17:36:09.601Z,62.73
2019-05-14T17:38:39.281Z,65.93
2019-05-14T17:41:09.443Z,66.70
2019-05-14T17:43:39.465Z,68.30
2019-05-14T17:46:09.853Z,64.83
2019-05-14T17:48:39.267Z,63.97
2019-05-14T17:51:09.435Z,67.77
2019-05-14T17:53:38.633Z,74.03
2019-05-14T17:56:08.463Z,87.00
2019-05-14T17:58:38.427Z,71.63
2019-05-14T18:01:09.100Z,79.80
2019-05-14T18:03:40.125Z,79.57
2019-05-14T18:06:09.194Z,82.80
2019-05-14T18:08:38.182Z,90.97
2019-05-14T18:11:08.827Z,95.60
2019-05-14T18:13:38.998Z,88.17
2019-05-14T18:16:08.968Z,95.77
2019-05-14T18:18:37.934Z,87.33
2019-05-14T18:21:09.113Z,90.57
2019-05-14T18:23:41.871Z,81.50
2019-05-14T18:26:09.774Z,84.60
2019-05-14T18:28:38.588Z,92.70
2019-05-14T18:31:09.397Z,89.47
2019-05-14T18:33:39.907Z,95.33
2019-05-14T18:36:08.477Z,88.20
2019-05-14T18:38:38.816Z,83.23
2019-05-14T18:41:08.512Z,79.20
2019-05-14T18:43:37.381Z,79.37
2019-05-14T18:46:08.290Z,77.47
2019-05-14T18:48:36.278Z,73.77
2019-05-14T18:51:04.878Z,68.13
2019-05-14T18:53:33.567Z,65.33
2019-05-14T18:56:16.627Z,58.97
2019-05-14T18:58:32.521Z,46.83
2019-05-14T19:01:01.292Z,53.23
2019-05-14T19:03:29.945Z,46.50
2019-05-14T19:06:01.331Z,45.13
2019-05-14T19:08:30.033Z,35.20
2019-05-14T19:10:59.339Z,34.50
2019-05-14T19:13:28.332Z,35.23
2019-05-14T19:15:59.019Z,34.70
2019-05-14T19:18:28.663Z,33.77
2019-05-14T19:21:03.382Z,40.30
2019-05-14T19:23:32.021Z,41.93
2019-05-14T19:26:00.624Z,39.33
2019-05-14T19:28:29.138Z,40.37
2019-05-14T19:30:59.565Z,43.20
2019-05-14T19:33:28.857Z,42.50
2019-05-14T19:35:57.705Z,36.57
2019-05-14T19:38:26.354Z,42.17
2019-05-14T19:40:55.053Z,41.47
2019-05-14T19:43:23.635Z,36.13
2019-05-14T19:45:52.385Z,37.73
2019-05-14T19:48:20.944Z,46.20
2019-05-14T19:50:49.609Z,41.17
2019-05-14T19:53:18.308Z,43.60
2019-05-14T19:55:48.539Z,36.20
2019-05-14T19:58:20.267Z,33.83
2019-05-14T20:00:48.843Z,34.03
2019-05-14T20:03:18.750Z,35.47
2019-05-14T20:05:47.681Z,30.50
2019-05-14T20:08:18.935Z,38.87
2019-05-14T20:10:48.986Z,37.70
2019-05-14T20:13:19.315Z,33.90
2019-05-14T20:15:48.701Z,36.87
2019-05-14T20:18:17.611Z,38.40
2019-05-14T20:20:46.279Z,34.27
2019-05-14T20:23:14.855Z,39.00
2019-05-14T20:25:43.435Z,35.33
2019-05-14T20:28:14.697Z,35.43
2019-05-14T20:30:43.338Z,39.83
2019-05-14T20:33:11.969Z,34.77
2019-05-14T20:35:40.655Z,40.10
2019-05-14T20:38:09.178Z,38.60
2019-05-14T20:40:38.089Z,44.40
2019-05-14T20:43:06.816Z,44.37
2019-05-14T20:45:35.389Z,46.50
2019-05-14T20:48:03.976Z,44.90
2019-05-14T20:50:32.622Z,45.83
2019-05-14T20:53:01.245Z,45.50
2019-05-14T20:55:29.881Z,51.03
2019-05-14T20:57:58.952Z,48.93
2019-05-14T21:00:29.183Z,49.30
2019-05-14T21:02:59.617Z,45.77
2019-05-14T21:05:28.813Z,52.03
2019-05-14T21:08:00.206Z,48.93
2019-05-14T21:10:29.352Z,48.50
2019-05-14T21:12:58.309Z,50.07
2019-05-14T21:15:28.473Z,46.50
2019-05-14T21:17:59.586Z,49.53
2019-05-14T21:20:28.392Z,49.57
2019-05-14T21:22:58.444Z,52.83
2019-05-14T21:25:29.356Z,57.80
2019-05-14T21:27:58.798Z,52.30
2019-05-14T21:30:29.553Z,55.33
2019-05-14T21:33:00.446Z,54.10
2019-05-14T21:35:29.181Z,57.63
2019-05-14T21:37:59.421Z,53.43
2019-05-14T21:40:31.676Z,57.57
2019-05-14T21:42:58.419Z,54.23
2019-05-14T21:45:27.078Z,58.87
2019-05-14T21:47:55.737Z,56.63
2019-05-14T21:50:24.389Z,60.83
2019-05-14T21:52:55.856Z,64.77
2019-05-14T21:55:24.585Z,62.03
2019-05-14T21:57:56.975Z,62.80
2019-05-14T22:00:38.737Z,69.20
2019-05-14T22:03:10.082Z,63.27
2019-05-14T22:05:39.305Z,65.43
2019-05-14T22:08:08.819Z,75.87
2019-05-14T22:10:39.781Z,73.33
2019-05-14T22:13:08.268Z,78.07
2019-05-14T22:15:38.901Z,79.30
2019-05-14T22:18:14.924Z,72.00
2019-05-14T22:20:38.620Z,79.87
2019-05-14T22:23:08.909Z,77.50
2019-05-14T22:25:39.514Z,80.73
2019-05-14T22:28:14.884Z,82.97
2019-05-14T22:30:38.981Z,89.77
2019-05-14T22:33:08.474Z,79.10
2019-05-14T22:35:39.497Z,86.17
2019-05-14T22:38:07.795Z,90.67
2019-05-14T22:40:38.780Z,94.43
2019-05-14T22:43:09.227Z,91.67
2019-05-14T22:45:37.187Z,97.43
2019-05-14T22:48:05.801Z,95.97
2019-05-14T22:50:34.459Z,94.50
2019-05-14T22:53:03.078Z,89.30
2019-05-14T22:55:31.733Z,101.30
2019-05-14T22:58:00.433Z,107.53
2019-05-14T23:00:29.195Z,110.20
2019-05-14T23:02:58.881Z,120.57
2019-05-14T23:05:29.070Z,126.00
2019-05-14T23:07:58.481Z,135.90
2019-05-14T23:10:27.271Z,124.97
2019-05-14T23:12:55.851Z,139.03
2019-05-14T23:15:24.445Z,142.40
2019-05-14T23:17:52.963Z,157.47
2019-05-14T23:20:21.553Z,153.63
2019-05-14T23:22:50.150Z,154.27
2019-05-14T23:25:18.780Z,151.03
2019-05-14T23:27:48.189Z,154.87
2019-05-14T23:30:19.994Z,170.70
2019-05-14T23:32:49.136Z,164.37
2019-05-14T23:35:18.867Z,185.80
2019-05-14T23:37:48.923Z,196.23
2019-05-14T23:40:17.968Z,218.67
2019-05-14T23:42:48.775Z,210.63
2019-05-14T23:45:19.034Z,210.73
2019-05-14T23:47:49.360Z,185.30
2019-05-14T23:50:17.714Z,189.33
2019-05-14T23:52:49.100Z,193.90
2019-05-14T23:55:18.118Z,169.37
2019-05-14T23:57:48.193Z,172.83
